createdAt,value
2017-08-15T00:02:16.954Z,4.00
2017-08-15T00:04:45.910Z,3.20
2017-08-15T00:07:14.884Z,3.87
2017-08-15T00:09:43.822Z,3.90
2017-08-15T00:12:12.768Z,4.37
2017-08-15T00:14:41.744Z,3.97
2017-08-15T00:17:10.697Z,4.10
2017-08-15T00:19:39.680Z,4.77
2017-08-15T00:22:08.658Z,4.80
2017-08-15T00:24:37.605Z,3.73
2017-08-15T00:27:06.562Z,4.00
2017-08-15T00:29:35.574Z,3.37
2017-08-15T00:32:04.511Z,4.00
2017-08-15T00:34:33.476Z,4.50
2017-08-15T00:37:02.427Z,3.63
2017-08-15T00:39:31.399Z,4.20
2017-08-15T00:42:01.148Z,4.10
2017-08-15T00:44:30.144Z,4.23
2017-08-15T00:46:59.087Z,4.53
2017-08-15T00:49:28.044Z,4.27
2017-08-15T00:51:57.000Z,4.30
2017-08-15T00:54:25.995Z,4.30
2017-08-15T00:56:55.072Z,4.53
2017-08-15T00:59:24.018Z,4.30
2017-08-15T01:01:52.980Z,4.40
2017-08-15T01:04:22.072Z,4.27
2017-08-15T01:06:51.007Z,4.13
2017-08-15T01:09:19.957Z,4.60
2017-08-15T01:11:48.927Z,4.70
2017-08-15T01:14:18.671Z,4.00
2017-08-15T01:16:47.637Z,4.67
2017-08-15T01:19:16.718Z,4.87
2017-08-15T01:21:45.746Z,4.57
2017-08-15T01:24:14.730Z,5.03
2017-08-15T01:26:43.671Z,4.67
2017-08-15T01:29:12.627Z,4.47
2017-08-15T01:31:41.566Z,4.70
2017-08-15T01:34:10.597Z,5.20
2017-08-15T01:36:39.530Z,4.50
2017-08-15T01:39:08.496Z,4.30
2017-08-15T01:41:37.437Z,4.90
2017-08-15T01:44:06.406Z,5.00
2017-08-15T01:46:35.362Z,5.03
2017-08-15T01:49:04.327Z,4.90
2017-08-15T01:51:33.298Z,4.43
2017-08-15T01:54:02.284Z,4.40
2017-08-15T01:56:31.236Z,5.87
2017-08-15T01:59:00.217Z,5.40
2017-08-15T02:01:29.171Z,4.90
2017-08-15T02:03:58.175Z,5.50
2017-08-15T02:06:27.885Z,5.00
2017-08-15T02:08:56.872Z,4.80
2017-08-15T02:11:26.604Z,4.70
2017-08-15T02:13:55.578Z,4.73
2017-08-15T02:16:25.280Z,4.97
2017-08-15T02:18:55.012Z,5.43
2017-08-15T02:21:23.968Z,5.67
2017-08-15T02:23:53.060Z,4.70
2017-08-15T02:26:22.068Z,4.67
2017-08-15T02:28:51.037Z,5.17
2017-08-15T02:31:20.037Z,5.40
2017-08-15T02:33:49.017Z,4.87
2017-08-15T02:36:17.997Z,5.00
2017-08-15T02:38:46.977Z,4.63
2017-08-15T02:41:15.921Z,5.10
2017-08-15T02:43:45.649Z,4.60
2017-08-15T02:46:14.618Z,5.00
2017-08-15T02:48:44.376Z,4.70
2017-08-15T02:51:13.332Z,5.30
2017-08-15T02:53:43.068Z,4.83
2017-08-15T02:56:12.244Z,5.00
2017-08-15T02:58:41.229Z,4.83
2017-08-15T03:01:10.977Z,5.07
2017-08-15T03:03:39.918Z,4.67
2017-08-15T03:06:08.912Z,5.30
2017-08-15T03:08:37.858Z,4.93
2017-08-15T03:11:06.815Z,4.63
2017-08-15T03:13:35.763Z,5.10
2017-08-15T03:16:04.730Z,4.93
2017-08-15T03:18:33.691Z,5.60
2017-08-15T03:21:02.666Z,5.40
2017-08-15T03:23:31.647Z,5.30
2017-08-15T03:26:00.625Z,4.73
2017-08-15T03:28:30.397Z,5.17
2017-08-15T03:30:59.345Z,5.47
2017-08-15T03:33:29.095Z,5.03
2017-08-15T03:35:58.073Z,4.50
2017-08-15T03:38:27.012Z,5.57
2017-08-15T03:40:55.997Z,5.50
2017-08-15T03:43:25.023Z,5.17
2017-08-15T03:45:54.004Z,5.17
2017-08-15T03:48:22.945Z,5.60
2017-08-15T03:50:51.933Z,5.33
2017-08-15T03:53:20.888Z,5.90
2017-08-15T03:55:50.626Z,5.63
2017-08-15T03:58:19.577Z,6.60
2017-08-15T04:00:48.558Z,6.00
2017-08-15T04:03:17.512Z,5.80
2017-08-15T04:05:46.504Z,6.13
2017-08-15T04:08:15.466Z,4.90
2017-08-15T04:10:45.180Z,5.70
2017-08-15T04:13:14.153Z,5.87
2017-08-15T04:15:43.875Z,5.20
2017-08-15T04:18:13.619Z,5.97
2017-08-15T04:20:42.614Z,5.80
2017-08-15T04:23:11.551Z,6.00
2017-08-15T04:25:40.524Z,6.03
2017-08-15T04:28:09.491Z,6.57
2017-08-15T04:30:38.450Z,5.30
2017-08-15T04:33:07.425Z,6.80
2017-08-15T04:35:37.189Z,5.23
2017-08-15T04:38:06.150Z,5.50
2017-08-15T04:40:35.102Z,5.40
2017-08-15T04:43:04.076Z,5.13
2017-08-15T04:45:33.080Z,6.60
2017-08-15T04:48:02.150Z,8.33
2017-08-15T04:50:31.114Z,5.80
2017-08-15T04:53:00.087Z,5.37
2017-08-15T04:55:29.056Z,5.70
2017-08-15T04:57:58.005Z,5.47
2017-08-15T05:00:26.982Z,5.97
2017-08-15T05:02:55.936Z,5.80
2017-08-15T05:05:24.909Z,6.03
2017-08-15T05:07:53.870Z,5.80
2017-08-15T05:10:22.961Z,6.50
2017-08-15T05:12:51.918Z,6.83
2017-08-15T05:15:21.653Z,5.60
2017-08-15T05:17:50.601Z,5.90
2017-08-15T05:20:19.594Z,6.40
2017-08-15T05:22:48.552Z,6.40
2017-08-15T05:25:17.549Z,6.23
2017-08-15T05:27:46.584Z,6.43
2017-08-15T05:30:16.353Z,6.43
2017-08-15T05:32:45.316Z,5.97
2017-08-15T05:35:14.393Z,5.70
2017-08-15T05:37:43.335Z,6.37
2017-08-15T05:40:12.313Z,6.00
2017-08-15T05:42:41.263Z,5.10
2017-08-15T05:45:10.368Z,6.07
2017-08-15T05:47:39.310Z,5.60
2017-08-15T05:50:08.303Z,5.43
2017-08-15T05:52:37.277Z,6.00
2017-08-15T05:55:06.240Z,5.50
2017-08-15T05:57:35.187Z,5.90
2017-08-15T06:00:04.163Z,6.20
2017-08-15T06:02:33.104Z,5.17
2017-08-15T06:05:02.214Z,5.40
2017-08-15T06:07:31.494Z,6.43
2017-08-15T06:10:00.467Z,5.10
2017-08-15T06:12:29.432Z,5.40
2017-08-15T06:14:58.405Z,5.07
2017-08-15T06:17:27.861Z,5.83
2017-08-15T06:19:57.393Z,6.00
2017-08-15T06:22:26.410Z,5.97
2017-08-15T06:24:55.449Z,5.73
2017-08-15T06:27:25.006Z,5.30
2017-08-15T06:29:54.032Z,5.57
2017-08-15T06:32:23.005Z,5.13
2017-08-15T06:34:52.046Z,5.00
2017-08-15T06:37:21.669Z,4.93
2017-08-15T06:39:51.351Z,5.30
2017-08-15T06:42:20.550Z,4.77
2017-08-15T06:44:50.206Z,4.33
2017-08-15T06:47:19.185Z,4.60
2017-08-15T06:49:48.292Z,5.20
2017-08-15T06:52:18.287Z,6.07
2017-08-15T06:54:48.095Z,4.80
2017-08-15T06:57:17.952Z,5.00
2017-08-15T06:59:47.105Z,4.30
2017-08-15T07:02:16.173Z,4.47
2017-08-15T07:04:45.164Z,4.93
2017-08-15T07:07:16.298Z,4.20
2017-08-15T07:09:46.072Z,4.20
2017-08-15T07:12:15.832Z,4.40
2017-08-15T07:14:44.842Z,4.13
2017-08-15T07:17:13.814Z,4.70
2017-08-15T07:19:43.665Z,4.00
2017-08-15T07:22:12.631Z,4.00
2017-08-15T07:24:42.398Z,4.50
2017-08-15T07:27:11.373Z,3.67
2017-08-15T07:29:40.381Z,4.03
2017-08-15T07:32:11.119Z,3.83
2017-08-15T07:34:42.737Z,3.80
2017-08-15T07:37:13.160Z,3.70
2017-08-15T07:39:42.119Z,3.80
2017-08-15T07:42:11.124Z,3.90
2017-08-15T07:44:40.674Z,3.53
2017-08-15T07:47:09.633Z,3.50
2017-08-15T07:49:38.642Z,3.10
2017-08-15T07:52:07.650Z,3.70
2017-08-15T07:54:36.721Z,3.60
2017-08-15T07:57:05.730Z,3.90
2017-08-15T07:59:34.715Z,4.00
2017-08-15T08:02:04.448Z,3.20
2017-08-15T08:04:34.336Z,4.10
2017-08-15T08:07:03.369Z,3.50
2017-08-15T08:09:32.320Z,3.60
2017-08-15T08:12:01.307Z,3.07
2017-08-15T08:14:31.500Z,3.37
2017-08-15T08:17:00.997Z,3.80
2017-08-15T08:19:29.969Z,3.70
2017-08-15T08:22:00.741Z,3.77
2017-08-15T08:24:29.709Z,4.07
2017-08-15T08:27:00.371Z,3.60
2017-08-15T08:29:29.344Z,4.20
2017-08-15T08:31:58.338Z,3.80
2017-08-15T08:34:27.827Z,3.33
2017-08-15T08:36:57.569Z,4.00
2017-08-15T08:39:27.216Z,3.80
2017-08-15T08:41:56.200Z,3.73
2017-08-15T08:44:25.164Z,4.30
2017-08-15T08:46:54.671Z,4.20
2017-08-15T08:49:23.644Z,4.07
2017-08-15T08:51:53.098Z,4.17
2017-08-15T08:54:24.096Z,4.30
2017-08-15T08:56:56.491Z,4.23
2017-08-15T08:59:25.458Z,3.97
2017-08-15T09:01:55.206Z,3.80
2017-08-15T09:04:25.009Z,4.27
2017-08-15T09:06:53.961Z,4.03
2017-08-15T09:09:23.718Z,3.80
2017-08-15T09:11:54.344Z,4.00
2017-08-15T09:14:23.983Z,4.00
2017-08-15T09:16:53.708Z,4.53
2017-08-15T09:19:23.439Z,4.80
2017-08-15T09:21:52.402Z,3.77
2017-08-15T09:24:22.152Z,4.23
2017-08-15T09:26:51.129Z,4.90
2017-08-15T09:29:20.112Z,5.40
2017-08-15T09:31:49.166Z,4.23
2017-08-15T09:34:18.133Z,4.70
2017-08-15T09:36:47.124Z,4.90
2017-08-15T09:39:16.086Z,5.37
2017-08-15T09:41:45.035Z,5.07
2017-08-15T09:44:14.076Z,5.50
2017-08-15T09:46:43.029Z,6.20
2017-08-15T09:49:11.983Z,5.43
2017-08-15T09:51:40.945Z,5.43
2017-08-15T09:54:10.119Z,6.53
2017-08-15T09:56:39.061Z,6.77
2017-08-15T09:59:09.230Z,5.77
2017-08-15T10:01:38.991Z,6.43
2017-08-15T10:04:08.720Z,7.23
2017-08-15T10:06:37.693Z,6.20
2017-08-15T10:09:06.678Z,6.33
2017-08-15T10:11:35.653Z,6.57
2017-08-15T10:14:04.608Z,4.80
2017-08-15T10:16:33.620Z,4.97
2017-08-15T10:19:02.577Z,6.03
2017-08-15T10:21:31.557Z,5.00
2017-08-15T10:24:00.576Z,4.67
2017-08-15T10:26:30.695Z,5.13
2017-08-15T10:29:00.349Z,4.23
2017-08-15T10:31:29.338Z,3.70
2017-08-15T10:33:58.293Z,3.73
2017-08-15T10:36:28.033Z,3.10
2017-08-15T10:38:56.985Z,3.80
2017-08-15T10:41:25.970Z,3.20
2017-08-15T10:43:56.379Z,3.10
2017-08-15T10:46:25.339Z,3.00
2017-08-15T10:48:54.333Z,3.77
2017-08-15T10:51:23.343Z,3.10
2017-08-15T10:53:53.251Z,3.67
2017-08-15T10:56:42.940Z,3.30
2017-08-15T10:59:12.090Z,3.00
2017-08-15T11:01:41.071Z,3.00
2017-08-15T11:04:10.781Z,2.87
2017-08-15T11:06:40.532Z,2.67
2017-08-15T11:09:09.484Z,2.67
2017-08-15T11:11:38.444Z,2.23
2017-08-15T11:14:07.407Z,2.70
2017-08-15T11:16:36.386Z,3.00
2017-08-15T11:19:05.337Z,2.10
2017-08-15T11:21:34.313Z,3.10
2017-08-15T11:24:03.332Z,3.30
2017-08-15T11:26:33.919Z,3.23
2017-08-15T11:29:04.592Z,3.00
2017-08-15T11:31:34.349Z,3.50
2017-08-15T11:34:03.298Z,3.27
2017-08-15T11:36:33.502Z,2.60
2017-08-15T11:39:02.527Z,3.60
2017-08-15T11:41:31.491Z,4.03
2017-08-15T11:44:00.460Z,3.57
2017-08-15T11:46:29.427Z,4.17
2017-08-15T11:48:58.410Z,3.97
2017-08-15T11:51:27.384Z,3.70
2017-08-15T11:53:56.478Z,4.00
2017-08-15T11:56:25.448Z,3.50
2017-08-15T11:58:54.416Z,3.90
2017-08-15T12:01:23.408Z,3.90
2017-08-15T12:03:52.370Z,3.40
2017-08-15T12:06:21.328Z,3.77
2017-08-15T12:08:50.288Z,4.07
2017-08-15T12:11:20.112Z,4.20
2017-08-15T12:13:49.077Z,3.80
2017-08-15T12:16:18.692Z,3.87
2017-08-15T12:18:47.633Z,3.33
2017-08-15T12:21:17.550Z,2.83
2017-08-15T12:23:46.523Z,2.70
2017-08-15T12:26:16.261Z,3.27
2017-08-15T12:28:45.239Z,3.03
2017-08-15T12:31:14.955Z,3.10
2017-08-15T12:33:43.897Z,3.20
2017-08-15T12:36:12.887Z,2.83
2017-08-15T12:38:41.888Z,2.60
2017-08-15T12:41:10.865Z,2.50
2017-08-15T12:43:39.824Z,2.60
2017-08-15T12:46:08.803Z,2.50
2017-08-15T12:48:37.773Z,2.90
2017-08-15T12:51:06.759Z,2.80
2017-08-15T12:53:35.837Z,2.97
2017-08-15T12:56:04.786Z,2.73
2017-08-15T12:58:33.746Z,3.10
2017-08-15T13:01:03.513Z,2.40
2017-08-15T13:03:32.465Z,2.30
2017-08-15T13:06:01.436Z,2.50
2017-08-15T13:08:31.173Z,2.53
2017-08-15T13:11:00.151Z,2.40
2017-08-15T13:13:29.892Z,2.50
2017-08-15T13:15:58.872Z,2.63
2017-08-15T13:18:27.803Z,2.33
2017-08-15T13:20:56.750Z,2.40
2017-08-15T13:23:25.787Z,2.33
2017-08-15T13:25:54.733Z,2.33
2017-08-15T13:28:23.705Z,2.10
2017-08-15T13:30:52.740Z,2.00
2017-08-15T13:33:21.838Z,2.30
2017-08-15T13:35:50.804Z,2.17
2017-08-15T13:38:19.836Z,2.10
2017-08-15T13:40:48.792Z,2.20
2017-08-15T13:43:17.809Z,1.97
2017-08-15T13:45:46.753Z,1.87
2017-08-15T13:48:15.840Z,1.90
2017-08-15T13:50:46.203Z,2.10
2017-08-15T13:53:15.188Z,2.50
2017-08-15T13:55:44.124Z,1.80
2017-08-15T13:58:13.098Z,1.87
2017-08-15T14:00:42.100Z,1.90
2017-08-15T14:03:11.075Z,2.00
2017-08-15T14:05:40.014Z,1.77
2017-08-15T14:08:09.108Z,1.83
2017-08-15T14:10:38.818Z,1.90
2017-08-15T14:13:07.809Z,1.33
2017-08-15T14:15:37.512Z,1.90
2017-08-15T14:18:06.545Z,1.70
2017-08-15T14:23:10.640Z,2.07
2017-08-15T14:25:40.358Z,2.10
2017-08-15T14:28:10.100Z,1.97
2017-08-15T14:30:39.033Z,2.10
2017-08-15T14:33:08.021Z,1.70
2017-08-15T14:35:36.973Z,1.50
2017-08-15T14:38:05.964Z,2.07
2017-08-15T14:40:34.919Z,2.30
2017-08-15T14:43:04.681Z,1.70
2017-08-15T14:45:33.617Z,1.80
2017-08-15T14:48:04.107Z,1.70
2017-08-15T14:50:33.082Z,1.60
2017-08-15T14:53:02.073Z,1.80
2017-08-15T14:55:31.024Z,2.20
2017-08-15T14:58:00.858Z,1.80
2017-08-15T15:00:29.802Z,2.20
2017-08-15T15:02:59.545Z,1.67
2017-08-15T15:05:28.501Z,1.87
2017-08-15T15:07:57.455Z,2.00
2017-08-15T15:10:26.415Z,1.60
2017-08-15T15:12:55.376Z,1.50
2017-08-15T15:15:24.384Z,1.83
2017-08-15T15:17:53.356Z,1.97
2017-08-15T15:20:22.315Z,1.90
2017-08-15T15:22:51.279Z,1.93
2017-08-15T15:25:20.287Z,1.80
2017-08-15T15:27:49.267Z,1.93
2017-08-15T15:30:19.126Z,2.27
2017-08-15T15:32:48.140Z,1.80
2017-08-15T15:35:17.092Z,1.90
2017-08-15T15:37:46.048Z,2.27
2017-08-15T15:40:15.848Z,2.33
2017-08-15T15:42:45.584Z,2.40
2017-08-15T15:45:15.429Z,1.97
2017-08-15T15:47:44.702Z,2.40
2017-08-15T15:50:13.648Z,2.50
2017-08-15T15:52:42.650Z,2.30
2017-08-15T15:55:12.377Z,2.87
2017-08-15T15:57:42.135Z,2.70
2017-08-15T16:00:12.157Z,2.20
2017-08-15T16:02:41.124Z,1.83
2017-08-15T16:05:10.075Z,2.50
2017-08-15T16:07:39.858Z,2.50
2017-08-15T16:10:09.688Z,2.13
2017-08-15T16:12:39.635Z,2.67
2017-08-15T16:15:08.609Z,2.00
2017-08-15T16:17:38.350Z,2.67
2017-08-15T16:20:08.164Z,2.47
2017-08-15T16:22:37.130Z,3.03
2017-08-15T16:25:06.076Z,2.50
2017-08-15T16:27:35.045Z,2.50
2017-08-15T16:30:03.996Z,2.53
2017-08-15T16:32:33.767Z,2.50
2017-08-15T16:35:02.708Z,2.63
2017-08-15T16:37:31.662Z,3.60
2017-08-15T16:40:00.658Z,3.23
2017-08-15T16:42:29.644Z,2.97
2017-08-15T16:44:58.580Z,3.50
2017-08-15T16:47:27.559Z,3.40
2017-08-15T16:49:57.268Z,4.07
2017-08-15T16:52:27.028Z,4.97
2017-08-15T16:54:55.992Z,4.63
2017-08-15T16:57:24.940Z,5.20
2017-08-15T16:59:53.932Z,6.27
2017-08-15T17:02:22.880Z,4.90
2017-08-15T17:04:51.854Z,4.00
2017-08-15T17:07:20.808Z,4.97
2017-08-15T17:09:49.788Z,4.27
2017-08-15T17:12:18.805Z,5.13
2017-08-15T17:14:48.564Z,7.20
2017-08-15T17:17:17.508Z,8.10
2017-08-15T17:19:47.233Z,5.90
2017-08-15T17:22:17.034Z,5.37
2017-08-15T17:24:46.786Z,5.50
2017-08-15T17:27:15.754Z,4.90
2017-08-15T17:29:44.721Z,4.77
2017-08-15T17:32:13.671Z,4.43
2017-08-15T17:34:42.657Z,4.40
2017-08-15T17:37:11.627Z,4.47
2017-08-15T17:39:40.606Z,4.90
2017-08-15T17:42:09.903Z,4.47
2017-08-15T17:44:38.901Z,3.60
2017-08-15T17:47:07.857Z,4.00
2017-08-15T17:49:36.829Z,3.30
2017-08-15T17:52:05.836Z,3.87
2017-08-15T17:54:34.822Z,3.97
2017-08-15T17:57:03.776Z,3.50
2017-08-15T17:59:36.560Z,2.83
2017-08-15T18:02:08.995Z,4.10
2017-08-15T18:04:38.744Z,3.90
2017-08-15T18:07:07.714Z,4.20
2017-08-15T18:09:36.705Z,3.80
2017-08-15T18:12:05.681Z,3.97
2017-08-15T18:14:34.646Z,3.33
2017-08-15T18:17:03.635Z,2.90
2017-08-15T18:19:32.602Z,2.93
2017-08-15T18:22:01.548Z,3.03
2017-08-15T18:24:31.293Z,4.00
2017-08-15T18:27:00.272Z,2.90
2017-08-15T18:29:29.261Z,1.47
2017-08-15T18:31:58.216Z,2.33
2017-08-15T18:34:27.214Z,2.33
2017-08-15T18:36:56.954Z,2.70
2017-08-15T18:39:25.935Z,2.80
2017-08-15T18:41:55.743Z,2.93
2017-08-15T18:44:25.497Z,3.30
2017-08-15T18:46:54.508Z,2.27
2017-08-15T18:49:23.501Z,2.00
2017-08-15T18:51:52.512Z,2.30
2017-08-15T18:54:21.521Z,2.73
2017-08-15T18:56:50.494Z,2.47
2017-08-15T18:59:19.469Z,2.97
2017-08-15T19:01:48.480Z,2.40
2017-08-15T19:04:17.449Z,3.03
2017-08-15T19:06:46.465Z,2.70
2017-08-15T19:09:15.515Z,2.70
2017-08-15T19:11:44.557Z,3.17
2017-08-15T19:14:13.632Z,3.47
2017-08-15T19:16:42.685Z,2.80
2017-08-15T19:19:11.744Z,2.83
2017-08-15T19:21:40.716Z,2.67
2017-08-15T19:24:09.809Z,3.33
2017-08-15T19:26:38.772Z,3.90
2017-08-15T19:29:07.791Z,3.07
2017-08-15T19:31:36.796Z,3.10
2017-08-15T19:34:05.804Z,3.13
2017-08-15T19:36:35.582Z,3.17
2017-08-15T19:39:04.691Z,3.50
2017-08-15T19:41:33.746Z,3.47
2017-08-15T19:44:02.705Z,3.43
2017-08-15T19:46:31.725Z,3.50
2017-08-15T19:49:00.727Z,3.30
2017-08-15T19:51:29.774Z,3.33
2017-08-15T19:53:59.539Z,3.47
2017-08-15T19:56:28.598Z,3.00
2017-08-15T19:58:57.573Z,3.20
2017-08-15T20:01:26.575Z,3.10
2017-08-15T20:03:55.522Z,3.40
2017-08-15T20:06:24.533Z,3.43
2017-08-15T20:08:53.492Z,3.43
2017-08-15T20:11:22.491Z,3.20
2017-08-15T20:13:51.469Z,3.37
2017-08-15T20:16:20.479Z,3.23
2017-08-15T20:18:49.454Z,3.83
2017-08-15T20:21:18.420Z,3.13
2017-08-15T20:23:47.414Z,3.20
2017-08-15T20:26:16.492Z,2.80
2017-08-15T20:28:46.196Z,3.30
2017-08-15T20:31:15.181Z,3.60
2017-08-15T20:33:44.132Z,4.53
2017-08-15T20:36:13.105Z,3.67
2017-08-15T20:38:42.947Z,4.30
2017-08-15T20:41:11.893Z,3.87
2017-08-15T20:43:40.879Z,3.93
2017-08-15T20:46:09.849Z,4.97
2017-08-15T20:48:38.838Z,4.60
2017-08-15T20:51:07.791Z,4.70
2017-08-15T20:53:36.762Z,5.10
2017-08-15T20:56:05.705Z,5.40
2017-08-15T20:58:34.670Z,5.23
2017-08-15T21:01:03.652Z,5.23
2017-08-15T21:03:32.634Z,5.80
2017-08-15T21:06:01.613Z,5.80
2017-08-15T21:08:30.586Z,5.70
2017-08-15T21:11:00.319Z,6.53
2017-08-15T21:13:29.286Z,6.77
2017-08-15T21:15:59.006Z,6.50
2017-08-15T21:18:28.797Z,6.90
2017-08-15T21:20:57.763Z,6.40
2017-08-15T21:23:27.469Z,6.93
2017-08-15T21:25:56.457Z,7.03
2017-08-15T21:28:25.446Z,6.27
2017-08-15T21:30:54.403Z,7.10
2017-08-15T21:33:38.379Z,6.90
2017-08-15T21:36:07.362Z,6.87
2017-08-15T21:38:36.338Z,7.30
2017-08-15T21:41:05.303Z,7.60
2017-08-15T21:43:35.028Z,8.37
2017-08-15T21:46:04.054Z,7.90
2017-08-15T21:48:33.022Z,9.00
2017-08-15T21:51:01.965Z,8.80
2017-08-15T21:53:30.978Z,9.33
2017-08-15T21:55:59.948Z,9.20
2017-08-15T21:58:28.893Z,9.40
2017-08-15T22:01:16.607Z,10.00
2017-08-15T22:03:45.560Z,9.30
2017-08-15T22:06:14.533Z,8.97
2017-08-15T22:08:43.517Z,10.13
2017-08-15T22:11:12.486Z,8.53
2017-08-15T22:13:41.463Z,9.00
2017-08-15T22:16:10.401Z,8.80
2017-08-15T22:18:39.381Z,8.70
2017-08-15T22:21:08.581Z,9.47
2017-08-15T22:23:37.528Z,9.57
2017-08-15T22:26:07.309Z,10.87
2017-08-15T22:28:36.304Z,9.77
2017-08-15T22:31:05.286Z,9.13
2017-08-15T22:33:34.262Z,10.30
2017-08-15T22:36:03.257Z,9.50
2017-08-15T22:38:32.221Z,9.87
2017-08-15T22:41:01.209Z,9.80
2017-08-15T22:43:30.170Z,10.53
2017-08-15T22:45:59.913Z,10.07
2017-08-15T22:48:28.874Z,9.23
2017-08-15T22:50:58.637Z,10.40
2017-08-15T22:53:27.616Z,10.93
2017-08-15T22:55:56.591Z,10.40
2017-08-15T22:58:25.600Z,11.33
2017-08-15T23:00:54.587Z,10.80
2017-08-15T23:03:23.540Z,12.57
2017-08-15T23:05:52.534Z,11.53
2017-08-15T23:08:22.291Z,12.30
2017-08-15T23:10:51.250Z,12.20
2017-08-15T23:13:20.247Z,11.93
2017-08-15T23:15:49.196Z,12.37
2017-08-15T23:18:18.188Z,13.73
2017-08-15T23:20:47.144Z,13.47
2017-08-15T23:23:18.940Z,14.03
2017-08-15T23:25:51.143Z,14.77
2017-08-15T23:28:20.886Z,12.73
2017-08-15T23:30:49.853Z,13.97
2017-08-15T23:33:18.842Z,14.10
2017-08-15T23:35:47.813Z,14.67
2017-08-15T23:38:17.573Z,15.20
2017-08-15T23:40:46.542Z,16.00
2017-08-15T23:43:15.520Z,15.60
2017-08-15T23:45:45.244Z,15.13
2017-08-15T23:48:14.255Z,16.30
2017-08-15T23:50:43.224Z,14.17
2017-08-15T23:53:12.189Z,15.90
2017-08-15T23:55:41.963Z,17.67
2017-08-15T23:58:10.954Z,17.07
